createdAt,value
2023-01-05T00:32:51.098Z,278.40
2023-01-05T00:36:54.086Z,295.70
2023-01-05T00:40:57.095Z,294.65
2023-01-05T00:45:01.525Z,297.00
2023-01-05T01:58:07.325Z,12.20
2023-01-05T02:02:10.515Z,10.27
2023-01-05T02:06:15.493Z,8.40
2023-01-05T02:10:25.624Z,10.60
2023-01-05T02:14:38.244Z,11.30
2023-01-05T02:18:52.823Z,10.90
2023-01-05T02:23:32.917Z,9.63
2023-01-05T02:27:46.976Z,12.00
2023-01-05T02:31:55.979Z,298.52
2023-01-05T02:36:04.439Z,296.50
2023-01-05T02:40:14.234Z,289.60
2023-01-05T02:44:18.364Z,11.15
2023-01-05T02:48:23.091Z,286.80
2023-01-05T02:52:27.251Z,282.45
2023-01-05T02:56:35.213Z,278.60
2023-01-05T03:00:42.569Z,278.10
2023-01-05T03:04:53.644Z,282.25
2023-01-05T03:09:00.107Z,245.40
2023-01-05T03:13:25.677Z,259.80
2023-01-05T03:17:34.282Z,292.80
2023-01-05T03:21:56.423Z,293.10
2023-01-05T03:26:17.912Z,146.55
2023-01-05T03:30:40.276Z,9.70
2023-01-05T03:35:05.670Z,10.70
2023-01-05T03:39:13.048Z,13.40
2023-01-05T03:43:16.464Z,11.20
2023-01-05T12:52:17.513Z,11.70
2023-01-05T12:56:26.374Z,12.95
2023-01-05T13:00:35.090Z,14.23
2023-01-05T13:04:48.448Z,10.35
2023-01-05T13:08:57.106Z,16.00
2023-01-05T13:13:05.088Z,8.23
2023-01-05T13:17:13.850Z,10.50
2023-01-05T13:21:20.118Z,12.25
2023-01-05T13:25:26.239Z,11.90
2023-01-05T13:29:35.878Z,10.80
2023-01-05T13:34:06.060Z,11.90
2023-01-05T13:38:32.637Z,11.25
2023-01-05T13:42:53.643Z,10.90
2023-01-05T13:47:17.556Z,9.23
2023-01-05T13:51:40.912Z,11.85
2023-01-05T13:55:52.420Z,15.10
2023-01-05T14:00:06.578Z,14.80
2023-01-05T14:04:19.885Z,15.10
2023-01-05T14:08:33.678Z,10.40
2023-01-05T14:12:54.144Z,15.35
2023-01-05T14:16:57.397Z,9.20
2023-01-05T14:21:11.873Z,14.80
2023-01-05T14:25:50.278Z,21.47
2023-01-05T14:30:27.539Z,8.20
2023-01-05T14:34:32.168Z,10.00
2023-01-05T14:38:35.556Z,9.75
2023-01-05T14:42:40.346Z,9.90
2023-01-05T15:33:25.833Z,12.60
2023-01-05T15:37:32.215Z,15.20
2023-01-05T15:45:43.221Z,14.10
2023-01-05T15:49:46.891Z,13.40
2023-01-05T17:12:06.923Z,10.80
2023-01-05T17:16:12.719Z,31.90
2023-01-05T17:20:17.325Z,24.47
2023-01-05T17:32:27.699Z,14.95
2023-01-05T17:36:33.569Z,13.00
2023-01-05T17:40:36.603Z,14.00
2023-01-05T17:48:42.472Z,12.90
2023-01-05T17:52:46.810Z,16.90
2023-01-05T17:56:49.891Z,11.90
2023-01-05T18:00:52.875Z,14.30
2023-01-05T18:09:01.020Z,12.50
2023-01-05T18:17:07.357Z,12.85
2023-01-05T18:41:28.040Z,24.70
2023-01-05T19:09:57.826Z,12.00
2023-01-05T19:18:06.732Z,20.00
2023-01-05T19:30:19.996Z,20.30
2023-01-05T20:59:56.763Z,14.75
2023-01-05T21:08:04.272Z,12.70
2023-01-05T21:12:07.761Z,13.13
2023-01-05T21:16:14.819Z,13.90
2023-01-05T21:20:17.870Z,14.00
2023-01-05T22:05:13.606Z,12.90
2023-01-05T22:29:33.746Z,14.20
2023-01-05T22:53:55.947Z,20.00
2023-01-05T23:06:06.200Z,15.30
2023-01-05T23:10:10.310Z,19.03
2023-01-05T23:14:13.955Z,14.70
2023-01-05T23:22:21.151Z,10.30
2023-01-05T23:26:25.782Z,13.88
2023-01-05T23:34:33.077Z,11.20
2023-01-05T23:38:36.046Z,12.90
